createdAt,value
2022-08-14T00:02:31.354Z,7.13
2022-08-14T00:05:00.234Z,7.43
2022-08-14T00:07:30.143Z,7.10
2022-08-14T00:10:49.245Z,7.93
2022-08-14T00:12:56.959Z,7.40
2022-08-14T00:15:37.461Z,8.17
2022-08-14T00:18:30.632Z,8.83
2022-08-14T00:21:03.495Z,7.63
2022-08-14T00:23:32.965Z,8.60
2022-08-14T00:26:06.649Z,8.10
2022-08-14T00:28:37.353Z,7.30
2022-08-14T00:31:09.616Z,7.73
2022-08-14T00:33:52.526Z,7.90
2022-08-14T00:36:36.386Z,7.17
2022-08-14T00:39:18.009Z,7.67
2022-08-14T00:41:48.091Z,8.17
2022-08-14T00:44:26.703Z,7.10
2022-08-14T00:47:02.568Z,7.17
2022-08-14T00:49:42.623Z,7.23
2022-08-14T00:52:14.103Z,8.20
2022-08-14T00:54:58.181Z,7.37
2022-08-14T00:57:30.765Z,7.83
2022-08-14T01:00:00.673Z,7.50
2022-08-14T01:02:31.709Z,7.50
2022-08-14T01:05:02.759Z,8.07
2022-08-14T01:07:47.204Z,7.37
2022-08-14T01:10:19.897Z,7.50
2022-08-14T01:12:49.733Z,7.30
2022-08-14T01:15:20.895Z,7.70
2022-08-14T01:18:17.463Z,7.73
2022-08-14T01:21:04.498Z,7.60
2022-08-14T01:23:35.044Z,7.47
2022-08-14T01:26:34.390Z,6.97
2022-08-14T01:29:05.920Z,7.67
2022-08-14T01:31:37.692Z,7.93
2022-08-14T01:35:18.334Z,7.77
2022-08-14T01:36:56.050Z,7.33
2022-08-14T01:39:26.347Z,7.43
2022-08-14T01:41:58.322Z,7.67
2022-08-14T01:44:34.076Z,6.97
2022-08-14T01:47:12.385Z,7.47
2022-08-14T01:50:01.778Z,7.10
2022-08-14T01:52:58.823Z,7.13
2022-08-14T01:55:32.228Z,7.53
2022-08-14T01:58:19.028Z,7.50
2022-08-14T02:00:54.422Z,7.70
2022-08-14T02:03:29.804Z,7.77
2022-08-14T02:05:59.892Z,7.67
2022-08-14T02:08:35.336Z,6.97
2022-08-14T02:11:22.464Z,7.70
2022-08-14T02:13:56.564Z,7.60
2022-08-14T02:16:26.971Z,8.00
2022-08-14T02:18:58.075Z,7.60
2022-08-14T02:21:28.668Z,8.00
2022-08-14T02:24:38.289Z,7.90
2022-08-14T02:28:24.309Z,7.80
2022-08-14T02:29:59.090Z,7.90
2022-08-14T02:32:30.318Z,8.20
2022-08-14T02:35:19.241Z,8.03
2022-08-14T02:37:50.809Z,8.03
2022-08-14T02:40:31.778Z,7.67
2022-08-14T02:43:05.443Z,6.90
2022-08-14T02:45:42.387Z,8.17
2022-08-14T02:49:02.791Z,8.10
2022-08-14T02:51:07.244Z,7.90
2022-08-14T02:53:42.256Z,8.10
2022-08-14T02:56:30.177Z,8.30
2022-08-14T02:59:05.815Z,7.87
2022-08-14T03:01:43.024Z,7.40
2022-08-14T03:04:20.234Z,7.80
2022-08-14T03:06:57.866Z,8.20
2022-08-14T03:10:25.123Z,8.20
2022-08-14T03:12:31.582Z,7.80
2022-08-14T03:15:13.836Z,7.93
2022-08-14T03:17:56.334Z,7.73
2022-08-14T03:20:28.310Z,7.87
2022-08-14T03:23:00.130Z,7.57
2022-08-14T03:25:34.074Z,7.10
2022-08-14T03:28:08.341Z,6.83
2022-08-14T03:30:44.481Z,7.80
2022-08-14T03:33:14.164Z,8.43
2022-08-14T03:36:00.400Z,8.37
2022-08-14T03:39:13.884Z,9.27
2022-08-14T03:41:23.667Z,9.93
2022-08-14T03:43:57.414Z,9.30
2022-08-14T03:46:53.086Z,9.07
2022-08-14T03:49:29.412Z,9.97
2022-08-14T03:52:00.744Z,9.73
2022-08-14T03:54:29.943Z,10.03
2022-08-14T03:57:02.956Z,10.13
2022-08-14T03:59:32.213Z,10.90
2022-08-14T04:02:04.492Z,10.70
2022-08-14T04:04:33.757Z,9.63
2022-08-14T04:07:03.119Z,10.17
2022-08-14T04:09:31.485Z,10.53
2022-08-14T04:11:59.900Z,11.03
2022-08-14T04:14:29.036Z,10.83
2022-08-14T04:16:57.671Z,11.17
2022-08-14T04:19:28.079Z,11.20
2022-08-14T04:22:02.657Z,11.23
2022-08-14T04:24:38.016Z,12.53
2022-08-14T04:27:09.691Z,11.57
2022-08-14T04:29:39.670Z,12.50
2022-08-14T04:32:57.723Z,12.87
2022-08-14T04:34:59.019Z,13.93
2022-08-14T04:37:45.712Z,13.67
2022-08-14T04:40:32.877Z,12.90
2022-08-14T04:43:21.006Z,12.97
2022-08-14T04:45:51.461Z,12.27
2022-08-14T04:48:38.982Z,13.37
2022-08-14T04:51:15.793Z,12.03
2022-08-14T04:53:48.202Z,12.60
2022-08-14T04:56:33.745Z,11.83
2022-08-14T04:59:10.386Z,12.83
2022-08-14T05:01:49.113Z,13.20
2022-08-14T05:04:21.667Z,14.37
2022-08-14T05:06:53.743Z,12.97
2022-08-14T05:09:24.441Z,13.20
2022-08-14T05:12:23.891Z,13.63
2022-08-14T05:14:55.121Z,13.60
2022-08-14T05:17:34.792Z,13.90
2022-08-14T05:21:04.910Z,13.97
2022-08-14T05:23:04.626Z,13.87
2022-08-14T05:25:33.748Z,13.03
2022-08-14T05:28:14.083Z,13.20
2022-08-14T05:30:44.419Z,13.07
2022-08-14T05:33:14.007Z,12.50
2022-08-14T05:35:43.723Z,12.33
2022-08-14T05:38:22.373Z,12.07
2022-08-14T05:41:01.052Z,12.40
2022-08-14T05:43:33.031Z,12.43
2022-08-14T05:46:12.052Z,12.50
2022-08-14T05:48:43.978Z,12.03
2022-08-14T05:51:13.532Z,11.10
2022-08-14T05:53:43.800Z,12.07
2022-08-14T05:56:30.140Z,12.30
2022-08-14T05:59:00.480Z,12.67
2022-08-14T06:01:31.481Z,11.87
2022-08-14T06:04:00.315Z,11.57
2022-08-14T06:06:28.416Z,11.70
2022-08-14T06:08:58.667Z,10.90
2022-08-14T06:11:31.096Z,11.80
2022-08-14T06:14:00.061Z,10.83
2022-08-14T06:16:28.370Z,11.10
2022-08-14T06:18:59.547Z,11.47
2022-08-14T06:21:27.861Z,11.10
2022-08-14T06:23:59.549Z,10.67
2022-08-14T06:26:30.335Z,10.97
2022-08-14T06:28:59.916Z,10.97
2022-08-14T06:31:28.134Z,11.10
2022-08-14T06:35:03.879Z,11.60
2022-08-14T06:36:44.881Z,11.93
2022-08-14T06:39:14.375Z,9.87
2022-08-14T06:41:58.737Z,10.10
2022-08-14T06:44:32.765Z,10.13
2022-08-14T06:47:04.509Z,10.10
2022-08-14T06:49:42.708Z,9.60
2022-08-14T06:52:16.055Z,10.07
2022-08-14T06:54:46.784Z,10.30
2022-08-14T06:57:14.999Z,9.43
2022-08-14T06:59:43.507Z,9.17
2022-08-14T07:02:29.396Z,9.23
2022-08-14T07:05:20.889Z,8.90
2022-08-14T07:07:52.525Z,9.00
2022-08-14T07:10:24.993Z,9.47
2022-08-14T07:13:01.625Z,9.33
2022-08-14T07:15:34.359Z,8.87
2022-08-14T07:18:09.715Z,8.30
2022-08-14T07:20:38.247Z,8.63
2022-08-14T07:23:10.921Z,8.30
2022-08-14T07:25:44.323Z,8.10
2022-08-14T07:28:21.083Z,7.60
2022-08-14T07:30:51.910Z,7.10
2022-08-14T07:33:24.623Z,7.17
2022-08-14T07:36:00.726Z,7.03
2022-08-14T07:38:36.314Z,6.90
2022-08-14T07:41:12.093Z,7.07
2022-08-14T07:43:52.909Z,6.43
2022-08-14T07:46:29.295Z,7.03
2022-08-14T07:48:59.378Z,5.93
2022-08-14T07:51:34.142Z,6.13
2022-08-14T07:54:04.274Z,6.50
2022-08-14T07:56:46.669Z,6.40
2022-08-14T07:59:18.355Z,6.33
2022-08-14T08:01:51.661Z,6.60
2022-08-14T08:04:27.494Z,7.00
2022-08-14T08:06:56.190Z,5.97
2022-08-14T08:09:32.464Z,6.57
2022-08-14T08:12:09.291Z,6.38
2022-08-14T08:14:56.714Z,6.28
2022-08-14T08:17:35.023Z,6.18
2022-08-14T08:20:11.767Z,5.88
2022-08-14T08:22:43.458Z,5.82
2022-08-14T08:25:18.045Z,5.72
2022-08-14T08:27:59.338Z,5.55
2022-08-14T08:30:29.822Z,5.60
2022-08-14T08:33:01.395Z,4.93
2022-08-14T08:35:47.211Z,4.88
2022-08-14T08:39:17.744Z,4.97
2022-08-14T08:41:11.330Z,4.43
2022-08-14T08:43:47.174Z,4.65
2022-08-14T08:46:23.952Z,4.50
2022-08-14T08:51:34.470Z,4.00
2022-08-14T08:54:05.588Z,4.32
2022-08-14T08:56:45.870Z,4.00
2022-08-14T08:59:27.187Z,3.53
2022-08-14T09:02:04.862Z,3.42
2022-08-14T09:04:45.892Z,3.65
2022-08-14T09:07:27.805Z,3.08
2022-08-14T09:09:58.967Z,3.60
2022-08-14T09:12:33.427Z,3.22
2022-08-14T09:15:11.707Z,3.40
2022-08-14T09:17:42.579Z,3.38
2022-08-14T09:20:14.106Z,3.13
2022-08-14T09:22:56.704Z,3.78
2022-08-14T09:26:00.445Z,3.72
2022-08-14T09:28:15.319Z,3.30
2022-08-14T09:30:50.175Z,3.00
2022-08-14T09:33:55.905Z,3.17
2022-08-14T09:36:45.411Z,2.83
2022-08-14T09:39:33.592Z,3.40
2022-08-14T09:42:33.379Z,3.47
2022-08-14T09:45:17.582Z,3.50
2022-08-14T09:47:51.931Z,3.22
2022-08-14T09:50:25.919Z,3.25
2022-08-14T09:52:58.731Z,3.25
2022-08-14T09:55:41.455Z,3.38
2022-08-14T09:58:22.726Z,3.15
2022-08-14T10:00:55.009Z,3.00
2022-08-14T10:03:33.952Z,2.45
2022-08-14T10:06:11.996Z,2.45
2022-08-14T10:08:51.258Z,2.08
2022-08-14T10:11:23.948Z,2.72
2022-08-14T10:13:55.989Z,2.70
2022-08-14T10:16:33.611Z,2.72
2022-08-14T10:19:09.269Z,2.70
2022-08-14T10:21:58.324Z,2.67
2022-08-14T10:24:37.465Z,2.78
2022-08-14T10:27:18.236Z,2.83
2022-08-14T10:29:51.052Z,2.72
2022-08-14T10:32:28.611Z,2.53
2022-08-14T10:35:14.739Z,2.85
2022-08-14T10:37:49.494Z,2.60
2022-08-14T10:40:37.907Z,2.42
2022-08-14T10:43:23.210Z,2.55
2022-08-14T10:46:21.836Z,2.50
2022-08-14T10:49:02.351Z,2.38
2022-08-14T10:51:39.857Z,2.20
2022-08-14T10:54:35.254Z,3.08
2022-08-14T10:57:11.298Z,2.10
2022-08-14T10:59:49.868Z,2.03
2022-08-14T11:02:44.823Z,2.08
2022-08-14T11:05:20.154Z,2.38
2022-08-14T11:08:01.897Z,2.15
2022-08-14T11:10:48.107Z,2.15
2022-08-14T11:13:21.276Z,2.35
2022-08-14T11:15:53.186Z,2.17
2022-08-14T11:18:35.630Z,2.17
2022-08-14T11:21:10.605Z,2.30
2022-08-14T11:23:41.335Z,2.00
2022-08-14T11:26:14.386Z,2.20
2022-08-14T11:28:49.835Z,2.05
2022-08-14T11:31:23.481Z,1.98
2022-08-14T11:33:58.273Z,2.15
2022-08-14T11:36:57.295Z,2.08
2022-08-14T11:39:34.471Z,2.00
2022-08-14T11:43:07.984Z,2.00
2022-08-14T11:45:04.539Z,1.48
2022-08-14T11:47:44.206Z,1.90
2022-08-14T11:50:36.249Z,2.30
2022-08-14T11:53:08.562Z,2.40
2022-08-14T11:55:40.679Z,1.90
2022-08-14T11:58:15.634Z,2.10
2022-08-14T12:00:58.787Z,2.20
2022-08-14T12:03:51.534Z,2.20
2022-08-14T12:06:28.866Z,2.30
2022-08-14T12:09:08.930Z,1.55
2022-08-14T12:11:47.536Z,2.00
2022-08-14T12:14:30.927Z,1.95
2022-08-14T12:17:12.799Z,1.83
2022-08-14T12:19:51.426Z,2.00
2022-08-14T12:22:35.320Z,2.38
2022-08-14T12:25:10.042Z,2.03
2022-08-14T12:27:46.689Z,1.90
2022-08-14T12:30:39.449Z,2.13
2022-08-14T12:33:25.618Z,1.90
2022-08-14T12:35:58.486Z,2.08
2022-08-14T12:38:38.089Z,2.40
2022-08-14T12:41:20.818Z,2.20
2022-08-14T12:43:55.626Z,2.20
2022-08-14T12:46:28.843Z,2.25
2022-08-14T12:48:59.925Z,2.20
2022-08-14T12:51:32.403Z,2.15
2022-08-14T12:54:01.730Z,2.30
2022-08-14T12:56:34.068Z,2.42
2022-08-14T12:59:05.048Z,2.25
2022-08-14T13:01:58.913Z,1.88
2022-08-14T13:04:25.018Z,2.30
2022-08-14T13:06:53.802Z,2.40
2022-08-14T13:09:27.903Z,2.30
2022-08-14T13:12:31.960Z,2.53
2022-08-14T13:15:00.233Z,2.47
2022-08-14T13:17:29.551Z,2.53
2022-08-14T13:20:10.075Z,2.17
2022-08-14T13:22:44.432Z,2.38
2022-08-14T13:25:17.600Z,1.77
2022-08-14T13:27:50.265Z,2.00
2022-08-14T13:30:26.406Z,2.53
2022-08-14T13:32:58.442Z,2.40
2022-08-14T13:35:27.742Z,2.35
2022-08-14T13:37:57.952Z,2.30
2022-08-14T13:40:27.654Z,2.65
2022-08-14T13:42:57.657Z,2.40
2022-08-14T13:45:59.234Z,2.38
2022-08-14T13:48:27.315Z,2.47
2022-08-14T13:51:05.398Z,2.45
2022-08-14T13:54:07.212Z,2.63
2022-08-14T13:56:42.192Z,2.90
2022-08-14T13:59:11.686Z,2.40
2022-08-14T14:01:46.318Z,2.50
2022-08-14T14:04:20.358Z,2.70
2022-08-14T14:06:52.092Z,2.60
2022-08-14T14:09:32.460Z,3.05
2022-08-14T14:12:37.832Z,2.70
2022-08-14T14:15:04.868Z,2.75
2022-08-14T14:17:39.064Z,3.10
2022-08-14T14:20:33.928Z,2.72
2022-08-14T14:23:03.531Z,2.80
2022-08-14T14:25:49.192Z,3.17
2022-08-14T14:28:24.626Z,2.80
2022-08-14T14:30:57.527Z,3.10
2022-08-14T14:33:50.728Z,3.83
2022-08-14T14:36:24.973Z,3.63
2022-08-14T14:38:56.031Z,3.67
2022-08-14T14:41:27.018Z,3.70
2022-08-14T14:44:09.106Z,3.55
2022-08-14T14:46:44.819Z,3.33
2022-08-14T14:49:15.013Z,3.28
2022-08-14T14:51:46.859Z,3.00
2022-08-14T14:54:31.560Z,3.05
2022-08-14T14:57:10.384Z,2.97
2022-08-14T14:59:45.659Z,3.75
2022-08-14T15:02:36.951Z,3.20
2022-08-14T15:05:09.084Z,3.40
2022-08-14T15:07:38.443Z,3.53
2022-08-14T15:10:27.089Z,3.35
2022-08-14T15:13:03.600Z,3.95
2022-08-14T15:15:33.492Z,3.22
2022-08-14T15:18:36.825Z,3.60
2022-08-14T15:20:58.031Z,3.58
2022-08-14T15:23:43.603Z,3.40
2022-08-14T15:26:23.872Z,3.78
2022-08-14T15:29:04.738Z,3.53
2022-08-14T15:31:34.927Z,3.60
2022-08-14T15:34:44.257Z,3.17
2022-08-14T15:37:06.328Z,3.60
2022-08-14T15:39:41.413Z,3.30
2022-08-14T15:42:14.447Z,3.05
2022-08-14T15:44:57.935Z,2.92
2022-08-14T15:47:33.114Z,3.97
2022-08-14T15:50:08.648Z,3.33
2022-08-14T15:52:39.105Z,3.28
2022-08-14T15:55:14.676Z,3.88
2022-08-14T15:58:01.872Z,3.30
2022-08-14T16:00:51.672Z,4.25
2022-08-14T16:03:27.552Z,3.15
2022-08-14T16:06:04.413Z,3.70
2022-08-14T16:08:35.432Z,3.70
2022-08-14T16:11:08.390Z,3.42
2022-08-14T16:13:42.940Z,3.95
2022-08-14T16:16:34.891Z,3.67
2022-08-14T16:19:09.497Z,3.50
2022-08-14T16:22:02.007Z,3.58
2022-08-14T16:24:34.729Z,3.55
2022-08-14T16:27:06.013Z,3.95
2022-08-14T16:29:39.802Z,3.97
2022-08-14T16:32:32.798Z,3.80
2022-08-14T16:35:01.912Z,3.67
2022-08-14T16:37:34.228Z,3.75
2022-08-14T16:40:06.663Z,3.78
2022-08-14T16:43:04.126Z,3.78
2022-08-14T16:45:33.581Z,3.97
2022-08-14T16:48:02.318Z,4.30
2022-08-14T16:50:40.429Z,4.10
2022-08-14T16:53:13.738Z,4.05
2022-08-14T16:55:53.843Z,4.63
2022-08-14T16:58:27.764Z,4.35
2022-08-14T17:01:23.038Z,4.32
2022-08-14T17:04:00.922Z,4.68
2022-08-14T17:06:48.200Z,4.60
2022-08-14T17:09:36.949Z,4.20
2022-08-14T17:12:28.616Z,5.30
2022-08-14T17:15:09.839Z,4.53
2022-08-14T17:17:50.015Z,5.03
2022-08-14T17:20:53.972Z,5.82
2022-08-14T17:23:17.026Z,5.00
2022-08-14T17:25:49.376Z,4.75
2022-08-14T17:28:50.649Z,4.95
2022-08-14T17:31:12.703Z,5.60
2022-08-14T17:33:44.512Z,5.05
2022-08-14T17:36:24.022Z,5.32
2022-08-14T17:39:00.532Z,4.90
2022-08-14T17:41:43.916Z,5.35
2022-08-14T17:44:33.907Z,5.03
2022-08-14T17:47:10.539Z,4.67
2022-08-14T17:49:52.233Z,5.13
2022-08-14T17:52:35.958Z,5.05
2022-08-14T17:56:01.110Z,5.30
2022-08-14T17:58:02.135Z,5.33
2022-08-14T18:00:57.470Z,5.40
2022-08-14T18:03:50.891Z,5.30
2022-08-14T18:06:39.103Z,5.87
2022-08-14T18:09:25.159Z,5.40
2022-08-14T18:11:57.113Z,5.33
2022-08-14T18:14:32.809Z,5.30
2022-08-14T18:17:20.528Z,5.47
2022-08-14T18:19:53.152Z,5.20
2022-08-14T18:22:32.943Z,5.50
2022-08-14T18:25:18.379Z,5.40
2022-08-14T18:27:51.675Z,5.77
2022-08-14T18:30:33.512Z,5.77
2022-08-14T18:33:23.819Z,5.90
2022-08-14T18:35:58.214Z,5.70
2022-08-14T18:38:45.713Z,5.43
2022-08-14T18:41:36.302Z,6.20
2022-08-14T18:44:10.167Z,5.80
2022-08-14T18:47:22.015Z,5.50
2022-08-14T18:50:27.579Z,6.27
2022-08-14T18:53:09.148Z,6.37
2022-08-14T18:55:54.063Z,6.27
2022-08-14T18:58:30.387Z,6.37
2022-08-14T19:01:06.289Z,6.07
2022-08-14T19:03:59.561Z,6.23
2022-08-14T19:06:56.155Z,5.63
2022-08-14T19:09:56.404Z,6.37
2022-08-14T19:13:04.789Z,5.93
2022-08-14T19:15:36.641Z,6.27
2022-08-14T19:18:26.670Z,6.90
2022-08-14T19:20:59.818Z,6.67
2022-08-14T19:23:41.992Z,6.67
2022-08-14T19:26:35.406Z,6.60
2022-08-14T19:29:35.896Z,6.63
2022-08-14T19:32:26.868Z,7.03
2022-08-14T19:34:59.944Z,7.13
2022-08-14T19:37:48.478Z,6.83
2022-08-14T19:40:33.833Z,7.03
2022-08-14T19:43:06.501Z,6.97
2022-08-14T19:45:39.281Z,7.27
2022-08-14T19:48:15.596Z,7.33
2022-08-14T19:50:47.230Z,6.93
2022-08-14T19:53:17.944Z,7.93
2022-08-14T19:56:00.625Z,7.20
2022-08-14T19:58:54.058Z,7.73
2022-08-14T20:01:37.440Z,7.40
2022-08-14T20:04:46.195Z,7.33
2022-08-14T20:07:04.361Z,7.93
2022-08-14T20:11:08.125Z,7.70
2022-08-14T20:12:36.387Z,7.17
2022-08-14T20:15:21.202Z,7.20
2022-08-14T20:17:52.515Z,7.93
2022-08-14T20:20:30.878Z,7.80
2022-08-14T20:23:11.558Z,7.43
2022-08-14T20:25:55.777Z,7.43
2022-08-14T20:28:35.732Z,7.63
2022-08-14T20:31:17.652Z,7.70
2022-08-14T20:34:06.860Z,7.93
2022-08-14T20:36:40.573Z,8.43
2022-08-14T20:39:15.435Z,7.93
2022-08-14T20:41:48.892Z,7.53
2022-08-14T20:44:39.038Z,8.30
2022-08-14T20:47:08.118Z,8.17
2022-08-14T20:49:37.317Z,9.20
2022-08-14T20:52:18.933Z,8.47
2022-08-14T20:54:51.857Z,8.47
2022-08-14T20:57:20.841Z,8.43
2022-08-14T20:59:57.376Z,8.33
2022-08-14T21:02:46.306Z,8.00
2022-08-14T21:05:22.506Z,9.23
2022-08-14T21:08:09.864Z,8.17
2022-08-14T21:10:55.118Z,8.47
2022-08-14T21:14:20.035Z,8.73
2022-08-14T21:16:34.198Z,8.53
2022-08-14T21:19:05.552Z,8.30
2022-08-14T21:21:41.462Z,8.67
2022-08-14T21:24:38.502Z,8.57
2022-08-14T21:27:13.241Z,9.07
2022-08-14T21:29:54.256Z,9.07
2022-08-14T21:32:47.271Z,8.80
2022-08-14T21:35:22.832Z,8.43
2022-08-14T21:37:52.530Z,8.43
2022-08-14T21:40:42.146Z,8.17
2022-08-14T21:43:18.584Z,8.47
2022-08-14T21:45:53.799Z,8.77
2022-08-14T21:48:26.538Z,8.83
2022-08-14T21:51:53.756Z,8.93
2022-08-14T21:54:00.209Z,8.80
2022-08-14T21:56:38.435Z,8.83
2022-08-14T21:59:17.832Z,8.27
2022-08-14T22:02:00.304Z,9.27
2022-08-14T22:04:40.321Z,8.83
2022-08-14T22:07:16.939Z,9.17
2022-08-14T22:09:55.032Z,9.03
2022-08-14T22:12:58.667Z,9.70
2022-08-14T22:15:18.008Z,9.43
2022-08-14T22:17:52.505Z,8.23
2022-08-14T22:20:28.136Z,8.87
2022-08-14T22:23:02.996Z,9.30
2022-08-14T22:25:41.384Z,9.13
2022-08-14T22:28:19.280Z,9.17
2022-08-14T22:30:54.950Z,9.57
2022-08-14T22:33:31.017Z,10.13
2022-08-14T22:36:00.880Z,9.60
2022-08-14T22:38:35.652Z,9.73
2022-08-14T22:41:27.838Z,9.30
2022-08-14T22:43:59.482Z,8.67
2022-08-14T22:46:28.070Z,9.80
2022-08-14T22:48:57.518Z,11.03
2022-08-14T22:51:27.653Z,11.50
2022-08-14T22:53:59.927Z,10.73
2022-08-14T22:56:30.451Z,10.53
2022-08-14T22:59:01.671Z,10.60
2022-08-14T23:01:56.374Z,10.87
2022-08-14T23:04:35.985Z,10.17
2022-08-14T23:07:22.560Z,10.20
2022-08-14T23:09:56.362Z,10.40
2022-08-14T23:12:31.462Z,9.73
2022-08-14T23:15:00.974Z,10.00
2022-08-14T23:17:38.960Z,9.97
2022-08-14T23:20:19.014Z,11.27
2022-08-14T23:22:51.302Z,10.47
2022-08-14T23:25:56.812Z,10.67
2022-08-14T23:28:34.845Z,10.03
2022-08-14T23:31:09.200Z,9.83
2022-08-14T23:33:45.757Z,10.07
2022-08-14T23:36:32.889Z,10.37
2022-08-14T23:39:12.237Z,10.20
2022-08-14T23:41:46.242Z,10.33
2022-08-14T23:44:23.525Z,11.60
2022-08-14T23:46:56.832Z,10.97
2022-08-14T23:49:56.687Z,11.20
2022-08-14T23:52:50.647Z,10.87
2022-08-14T23:55:11.304Z,10.87
2022-08-14T23:57:43.931Z,10.70
